createdAt,value
2017-01-06T00:00:16.327Z,930.34
2017-01-06T00:00:44.178Z,930.37
2017-01-06T00:01:11.980Z,930.34
2017-01-06T00:01:40.165Z,930.39
2017-01-06T00:02:08.480Z,930.35
2017-01-06T00:02:36.506Z,930.36
2017-01-06T00:03:04.992Z,930.37
2017-01-06T00:03:32.935Z,930.37
2017-01-06T00:04:00.822Z,930.35
2017-01-06T00:04:28.709Z,930.34
2017-01-06T00:04:57.159Z,930.36
2017-01-06T00:05:24.996Z,930.38
2017-01-06T00:05:53.135Z,930.38
2017-01-06T00:06:20.957Z,930.37
2017-01-06T00:06:48.780Z,930.37
2017-01-06T00:07:16.628Z,930.37
2017-01-06T00:07:44.477Z,930.38
2017-01-06T00:08:12.317Z,930.37
2017-01-06T00:08:40.142Z,930.39
2017-01-06T00:09:08.301Z,930.37
2017-01-06T00:09:36.236Z,930.38
2017-01-06T00:10:04.141Z,930.41
2017-01-06T00:10:32.308Z,930.39
2017-01-06T00:11:00.236Z,930.38
2017-01-06T00:11:30.657Z,930.4
2017-01-06T00:11:59.462Z,930.39
2017-01-06T00:12:27.352Z,930.38
2017-01-06T00:12:56.245Z,930.43
2017-01-06T00:13:24.250Z,930.4
2017-01-06T00:13:52.165Z,930.43
2017-01-06T00:14:20.142Z,930.43
2017-01-06T00:14:48.117Z,930.43
2017-01-06T00:15:16.885Z,930.38
2017-01-06T00:15:45.177Z,930.45
2017-01-06T00:16:13.011Z,930.41
2017-01-06T00:16:41.360Z,930.44
2017-01-06T00:17:09.223Z,930.46
2017-01-06T00:17:37.145Z,930.42
2017-01-06T00:18:05.104Z,930.42
2017-01-06T00:18:33.364Z,930.46
2017-01-06T00:19:01.515Z,930.46
2017-01-06T00:19:30.820Z,930.44
2017-01-06T00:19:58.745Z,930.46
2017-01-06T00:20:26.978Z,930.46
2017-01-06T00:20:55.005Z,930.46
2017-01-06T00:21:22.899Z,930.49
2017-01-06T00:21:51.242Z,930.47
2017-01-06T00:22:19.118Z,930.47
2017-01-06T00:22:47.003Z,930.5
2017-01-06T00:23:16.413Z,930.51
2017-01-06T00:23:45.013Z,930.52
2017-01-06T00:24:15.183Z,930.5
2017-01-06T00:24:45.692Z,930.52
2017-01-06T00:25:13.553Z,930.53
2017-01-06T00:25:41.865Z,930.54
2017-01-06T00:26:09.958Z,930.56
2017-01-06T00:26:37.807Z,930.59
2017-01-06T00:27:06.041Z,930.61
2017-01-06T00:27:33.905Z,930.64
2017-01-06T00:28:04.719Z,930.62
2017-01-06T00:28:32.744Z,930.61
2017-01-06T00:29:00.605Z,930.65
2017-01-06T00:29:28.702Z,930.66
2017-01-06T00:29:56.541Z,930.69
2017-01-06T00:30:24.312Z,930.68
2017-01-06T00:30:53.425Z,930.72
2017-01-06T00:31:22.069Z,930.75
2017-01-06T00:31:50.183Z,930.75
2017-01-06T00:32:18.065Z,930.8
2017-01-06T00:32:45.912Z,930.84
2017-01-06T00:33:15.678Z,930.84
2017-01-06T00:33:46.413Z,930.87
2017-01-06T00:34:14.265Z,930.87
2017-01-06T00:34:43.292Z,930.9
2017-01-06T00:35:11.163Z,930.9
2017-01-06T00:35:39.554Z,930.89
2017-01-06T00:36:07.705Z,930.93
2017-01-06T00:36:35.554Z,930.92
2017-01-06T00:37:03.520Z,930.93
2017-01-06T00:37:31.444Z,930.95
2017-01-06T00:38:00.493Z,930.92
2017-01-06T00:38:28.642Z,930.94
2017-01-06T00:38:56.583Z,930.92
2017-01-06T00:39:24.609Z,930.95
2017-01-06T00:39:52.512Z,930.97
2017-01-06T00:40:20.361Z,930.96
2017-01-06T00:40:48.249Z,930.95
2017-01-06T00:41:16.051Z,930.96
2017-01-06T00:41:43.903Z,930.94
2017-01-06T00:42:11.752Z,931
2017-01-06T00:42:39.551Z,930.98
2017-01-06T00:43:07.944Z,930.98
2017-01-06T00:43:38.195Z,931.07
2017-01-06T00:44:06.967Z,931.05
2017-01-06T00:44:37.187Z,931.07
2017-01-06T00:45:05.004Z,931.1
2017-01-06T00:45:33.031Z,931.09
2017-01-06T00:46:02.978Z,931.12
2017-01-06T00:46:31.213Z,931.18
2017-01-06T00:46:59.745Z,931.18
2017-01-06T00:47:29.232Z,931.21
2017-01-06T00:47:58.102Z,931.26
2017-01-06T00:48:25.938Z,931.28
2017-01-06T00:48:53.892Z,931.27
2017-01-06T00:49:21.823Z,931.27
2017-01-06T00:49:49.846Z,931.31
2017-01-06T00:50:17.683Z,931.32
2017-01-06T00:50:46.559Z,931.35
2017-01-06T00:51:14.741Z,931.38
2017-01-06T00:51:42.612Z,931.41
2017-01-06T00:52:10.627Z,931.45
2017-01-06T00:52:39.350Z,931.45
2017-01-06T00:53:07.937Z,931.42
2017-01-06T00:53:36.613Z,931.49
2017-01-06T00:54:04.860Z,931.54
2017-01-06T00:54:32.956Z,931.55
2017-01-06T00:55:00.885Z,931.56
2017-01-06T00:55:30.507Z,931.59
2017-01-06T00:55:58.352Z,931.62
2017-01-06T00:56:26.353Z,931.63
2017-01-06T00:56:54.409Z,931.66
2017-01-06T00:57:22.560Z,931.71
2017-01-06T00:57:50.600Z,931.73
2017-01-06T00:58:19.138Z,931.75
2017-01-06T00:58:49.482Z,931.81
2017-01-06T00:59:17.444Z,931.78
2017-01-06T00:59:45.396Z,931.8
2017-01-06T01:00:14.405Z,931.76
2017-01-06T01:00:42.459Z,931.84
2017-01-06T01:01:10.318Z,931.84
2017-01-06T01:01:38.347Z,931.79
2017-01-06T01:02:06.191Z,931.84
2017-01-06T01:02:34.844Z,931.82
2017-01-06T01:03:02.847Z,931.84
2017-01-06T01:03:31.119Z,931.87
2017-01-06T01:03:58.953Z,931.87
2017-01-06T01:04:26.969Z,931.95
2017-01-06T01:04:54.998Z,931.95
2017-01-06T01:05:23.459Z,931.95
2017-01-06T01:05:54.284Z,931.93
2017-01-06T01:06:22.932Z,931.96
2017-01-06T01:06:51.077Z,931.97
2017-01-06T01:07:20.082Z,931.98
2017-01-06T01:07:48.793Z,931.99
2017-01-06T01:08:16.911Z,932.03
2017-01-06T01:08:45.070Z,932.04
2017-01-06T01:09:12.933Z,932.03
2017-01-06T01:09:41.307Z,932.04
2017-01-06T01:10:09.252Z,932.08
2017-01-06T01:10:37.084Z,932.07
2017-01-06T01:11:04.972Z,932.09
2017-01-06T01:11:33.405Z,932.07
2017-01-06T01:12:01.259Z,932.08
2017-01-06T01:12:29.125Z,932.1
2017-01-06T01:12:57.034Z,932.05
2017-01-06T01:13:24.909Z,932.06
2017-01-06T01:13:52.844Z,932.08
2017-01-06T01:14:20.688Z,932.05
2017-01-06T01:14:48.723Z,932.06
2017-01-06T01:15:16.629Z,932.03
2017-01-06T01:15:44.467Z,932.08
2017-01-06T01:16:12.566Z,932.07
2017-01-06T01:16:40.400Z,932.03
2017-01-06T01:17:08.260Z,932.06
2017-01-06T01:17:36.105Z,932.07
2017-01-06T01:18:04.144Z,932
2017-01-06T01:18:32.505Z,932.03
2017-01-06T01:19:00.302Z,932
2017-01-06T01:19:28.131Z,932.05
2017-01-06T01:19:56.099Z,932.03
2017-01-06T01:20:23.937Z,932.02
2017-01-06T01:20:51.791Z,932.01
2017-01-06T01:21:19.685Z,932.02
2017-01-06T01:21:47.513Z,932.03
2017-01-06T01:22:15.336Z,932.03
2017-01-06T01:22:43.186Z,932.03
2017-01-06T01:23:10.985Z,932.04
2017-01-06T01:23:38.740Z,932.03
2017-01-06T01:24:06.869Z,932
2017-01-06T01:24:34.715Z,932.01
2017-01-06T01:25:02.701Z,932.01
2017-01-06T01:25:30.511Z,932.01
2017-01-06T01:25:58.388Z,931.98
2017-01-06T01:26:26.248Z,932
2017-01-06T01:26:54.070Z,931.98
2017-01-06T01:27:22.490Z,932
2017-01-06T01:27:50.571Z,932
2017-01-06T01:28:18.840Z,931.97
2017-01-06T01:28:46.928Z,931.99
2017-01-06T01:29:16.191Z,931.99
2017-01-06T01:29:44.889Z,931.96
2017-01-06T01:30:12.960Z,931.95
2017-01-06T01:30:41.280Z,931.96
2017-01-06T01:31:09.132Z,931.92
2017-01-06T01:31:39.585Z,931.96
2017-01-06T01:32:08.986Z,931.9
2017-01-06T01:32:37.161Z,931.96
2017-01-06T01:33:05.059Z,931.95
2017-01-06T01:33:32.971Z,931.95
2017-01-06T01:34:01.300Z,931.9
2017-01-06T01:34:29.289Z,931.92
2017-01-06T01:34:57.585Z,931.86
2017-01-06T01:35:25.467Z,931.91
2017-01-06T01:35:53.305Z,931.86
2017-01-06T01:36:21.996Z,931.86
2017-01-06T01:36:50.055Z,931.86
2017-01-06T01:37:19.195Z,931.81
2017-01-06T01:37:49.536Z,931.89
2017-01-06T01:38:18.669Z,931.83
2017-01-06T01:38:48.054Z,931.88
2017-01-06T01:39:16.948Z,931.87
2017-01-06T01:39:44.820Z,931.91
2017-01-06T01:40:13.641Z,931.93
2017-01-06T01:40:42.522Z,931.92
2017-01-06T01:41:10.852Z,931.94
2017-01-06T01:41:40.163Z,931.97
2017-01-06T01:42:08.355Z,931.97
2017-01-06T01:42:36.502Z,931.94
2017-01-06T01:43:04.380Z,931.96
2017-01-06T01:43:32.265Z,931.97
2017-01-06T01:44:00.782Z,931.94
2017-01-06T01:44:28.577Z,931.97
2017-01-06T01:44:57.182Z,931.96
2017-01-06T01:45:25.865Z,931.97
2017-01-06T01:45:54.191Z,931.97
2017-01-06T01:46:24.780Z,931.92
2017-01-06T01:46:53.005Z,931.92
2017-01-06T01:47:20.822Z,931.93
2017-01-06T01:47:48.720Z,931.89
2017-01-06T01:48:16.559Z,931.9
2017-01-06T01:48:44.783Z,931.9
2017-01-06T01:49:12.729Z,931.91
2017-01-06T01:49:40.599Z,931.88
2017-01-06T01:50:08.615Z,931.91
2017-01-06T01:50:36.436Z,931.93
2017-01-06T01:51:04.252Z,931.94
2017-01-06T01:51:32.171Z,931.93
2017-01-06T01:52:00.827Z,931.93
2017-01-06T01:52:28.674Z,931.92
2017-01-06T01:52:56.496Z,931.94
2017-01-06T01:53:24.379Z,931.93
2017-01-06T01:53:52.227Z,931.95
2017-01-06T01:54:20.057Z,931.92
2017-01-06T01:54:47.964Z,931.93
2017-01-06T01:55:16.048Z,931.91
2017-01-06T01:55:43.861Z,931.88
2017-01-06T01:56:11.710Z,931.92
2017-01-06T01:56:39.493Z,931.89
2017-01-06T01:57:07.432Z,931.9
2017-01-06T01:57:35.221Z,931.86
2017-01-06T01:58:03.077Z,931.87
2017-01-06T01:58:30.924Z,931.85
2017-01-06T01:58:58.721Z,931.82
2017-01-06T01:59:26.628Z,931.87
2017-01-06T01:59:54.456Z,931.85
2017-01-06T02:00:22.525Z,931.82
2017-01-06T02:00:50.354Z,931.83
2017-01-06T02:01:18.124Z,931.85
2017-01-06T02:01:46.137Z,931.83
2017-01-06T02:02:51.299Z,931.82
2017-01-06T02:03:19.174Z,931.8
2017-01-06T02:03:47.136Z,931.82
2017-01-06T02:04:15.038Z,931.76
2017-01-06T02:04:42.945Z,931.79
2017-01-06T02:05:10.905Z,931.77
2017-01-06T02:05:38.930Z,931.78
2017-01-06T02:06:06.702Z,931.75
2017-01-06T02:06:34.564Z,931.79
2017-01-06T02:07:02.419Z,931.76
2017-01-06T02:07:30.281Z,931.76
2017-01-06T02:07:58.062Z,931.72
2017-01-06T02:08:25.953Z,931.71
2017-01-06T02:08:53.769Z,931.69
2017-01-06T02:09:21.613Z,931.68
2017-01-06T02:09:49.532Z,931.64
2017-01-06T02:10:17.395Z,931.67
2017-01-06T02:10:45.347Z,931.65
2017-01-06T02:11:13.199Z,931.66
2017-01-06T02:11:41.091Z,931.65
2017-01-06T02:12:09.121Z,931.61
2017-01-06T02:12:37.027Z,931.61
2017-01-06T02:13:04.828Z,931.61
2017-01-06T02:13:32.716Z,931.62
2017-01-06T02:14:00.678Z,931.61
2017-01-06T02:14:28.761Z,931.61
2017-01-06T02:14:56.604Z,931.59
2017-01-06T02:15:24.486Z,931.65
2017-01-06T02:15:52.481Z,931.63
2017-01-06T02:16:20.309Z,931.61
2017-01-06T02:16:48.123Z,931.66
2017-01-06T02:17:15.930Z,931.64
2017-01-06T02:17:43.861Z,931.66
2017-01-06T02:18:11.716Z,931.68
2017-01-06T02:18:39.665Z,931.7
2017-01-06T02:19:07.483Z,931.68
2017-01-06T02:19:35.397Z,931.63
2017-01-06T02:20:03.389Z,931.63
2017-01-06T02:20:31.576Z,931.63
2017-01-06T02:20:59.475Z,931.59
2017-01-06T02:21:27.402Z,931.55
2017-01-06T02:21:55.274Z,931.55
2017-01-06T02:22:23.341Z,931.55
2017-01-06T02:22:51.165Z,931.54
2017-01-06T02:23:19.097Z,931.52
2017-01-06T02:23:47.099Z,931.53
2017-01-06T02:24:14.998Z,931.5
2017-01-06T02:24:43.355Z,931.47
2017-01-06T02:25:11.225Z,931.48
2017-01-06T02:25:39.292Z,931.48
2017-01-06T02:26:07.374Z,931.49
2017-01-06T02:26:35.471Z,931.54
2017-01-06T02:27:03.409Z,931.49
2017-01-06T02:27:31.427Z,931.58
2017-01-06T02:27:59.369Z,931.54
2017-01-06T02:28:27.448Z,931.53
2017-01-06T02:28:55.407Z,931.56
2017-01-06T02:29:23.335Z,931.6
2017-01-06T02:29:51.446Z,931.56
2017-01-06T02:30:19.343Z,931.58
2017-01-06T02:30:47.444Z,931.55
2017-01-06T02:31:15.400Z,931.56
2017-01-06T02:31:43.209Z,931.51
2017-01-06T02:32:11.123Z,931.51
2017-01-06T02:32:38.968Z,931.55
2017-01-06T02:33:06.949Z,931.51
2017-01-06T02:33:34.916Z,931.52
2017-01-06T02:34:02.750Z,931.53
2017-01-06T02:34:30.689Z,931.54
2017-01-06T02:34:58.532Z,931.52
2017-01-06T02:35:26.397Z,931.51
2017-01-06T02:35:54.328Z,931.54
2017-01-06T02:36:22.161Z,931.53
2017-01-06T02:36:50.063Z,931.5
2017-01-06T02:37:17.950Z,931.46
2017-01-06T02:37:45.883Z,931.45
2017-01-06T02:38:13.701Z,931.44
2017-01-06T02:38:41.561Z,931.45
2017-01-06T02:39:09.430Z,931.42
2017-01-06T02:39:37.303Z,931.42
2017-01-06T02:40:05.375Z,931.4
2017-01-06T02:40:33.332Z,931.42
2017-01-06T02:41:01.194Z,931.43
2017-01-06T02:41:29.082Z,931.39
2017-01-06T02:41:56.879Z,931.38
2017-01-06T02:42:24.700Z,931.37
2017-01-06T02:42:52.522Z,931.35
2017-01-06T02:43:20.464Z,931.35
2017-01-06T02:43:48.251Z,931.3
2017-01-06T02:44:16.183Z,931.32
2017-01-06T02:44:43.988Z,931.35
2017-01-06T02:45:11.887Z,931.34
2017-01-06T02:45:39.828Z,931.31
2017-01-06T02:46:07.639Z,931.3
2017-01-06T02:46:35.429Z,931.31
2017-01-06T02:47:03.273Z,931.27
2017-01-06T02:47:31.106Z,931.31
2017-01-06T02:47:58.901Z,931.29
2017-01-06T02:48:26.837Z,931.27
2017-01-06T02:48:54.673Z,931.25
2017-01-06T02:49:22.454Z,931.27
2017-01-06T02:49:50.297Z,931.25
2017-01-06T02:50:18.128Z,931.29
2017-01-06T02:50:46.022Z,931.25
2017-01-06T02:51:13.957Z,931.26
2017-01-06T02:51:41.730Z,931.25
2017-01-06T02:52:09.544Z,931.22
2017-01-06T02:52:37.304Z,931.24
2017-01-06T02:53:05.117Z,931.28
2017-01-06T02:53:32.886Z,931.22
2017-01-06T02:54:00.743Z,931.25
2017-01-06T02:54:28.629Z,931.23
2017-01-06T02:54:56.455Z,931.24
2017-01-06T02:55:24.335Z,931.24
2017-01-06T02:55:52.314Z,931.25
2017-01-06T02:56:20.160Z,931.21
2017-01-06T02:56:47.944Z,931.22
2017-01-06T02:57:15.734Z,931.23
2017-01-06T02:57:43.632Z,931.23
2017-01-06T02:58:11.607Z,931.19
2017-01-06T02:58:39.519Z,931.17
2017-01-06T02:59:07.373Z,931.19
2017-01-06T02:59:35.309Z,931.15
2017-01-06T03:00:03.304Z,931.19
2017-01-06T03:00:31.125Z,931.17
2017-01-06T03:00:59.286Z,931.17
2017-01-06T03:01:27.139Z,931.15
2017-01-06T03:01:54.930Z,931.15
2017-01-06T03:02:22.746Z,931.14
2017-01-06T03:02:50.681Z,931.1
2017-01-06T03:03:18.475Z,931.1
2017-01-06T03:03:46.249Z,931.07
2017-01-06T03:04:14.125Z,931.05
2017-01-06T03:04:41.938Z,931
2017-01-06T03:05:09.874Z,930.99
2017-01-06T03:05:37.919Z,931
2017-01-06T03:06:05.825Z,930.94
2017-01-06T03:06:33.724Z,930.9
2017-01-06T03:07:01.716Z,930.89
2017-01-06T03:07:29.588Z,930.92
2017-01-06T03:07:57.486Z,930.87
2017-01-06T03:08:25.328Z,930.83
2017-01-06T03:08:53.190Z,930.81
2017-01-06T03:09:21.025Z,930.83
2017-01-06T03:09:48.839Z,930.82
2017-01-06T03:10:16.660Z,930.82
2017-01-06T03:10:44.671Z,930.81
2017-01-06T03:11:12.497Z,930.79
2017-01-06T03:11:40.319Z,930.8
2017-01-06T03:12:08.151Z,930.78
2017-01-06T03:12:35.980Z,930.77
2017-01-06T03:13:03.877Z,930.79
2017-01-06T03:13:31.706Z,930.72
2017-01-06T03:13:59.553Z,930.76
2017-01-06T03:14:27.408Z,930.76
2017-01-06T03:14:55.239Z,930.69
2017-01-06T03:15:23.108Z,930.69
2017-01-06T03:15:51.051Z,930.7
2017-01-06T03:16:18.858Z,930.71
2017-01-06T03:16:46.729Z,930.7
2017-01-06T03:17:14.731Z,930.65
2017-01-06T03:17:42.618Z,930.64
2017-01-06T03:18:10.457Z,930.62
2017-01-06T03:18:38.318Z,930.64
2017-01-06T03:19:06.152Z,930.64
2017-01-06T03:19:33.945Z,930.64
2017-01-06T03:20:01.779Z,930.61
2017-01-06T03:20:29.692Z,930.58
2017-01-06T03:20:57.598Z,930.6
2017-01-06T03:21:25.480Z,930.59
2017-01-06T03:21:53.262Z,930.58
2017-01-06T03:22:21.085Z,930.53
2017-01-06T03:22:48.931Z,930.56
2017-01-06T03:23:16.837Z,930.57
2017-01-06T03:23:44.693Z,930.54
2017-01-06T03:24:12.569Z,930.58
2017-01-06T03:24:40.394Z,930.57
2017-01-06T03:25:08.322Z,930.59
2017-01-06T03:25:36.163Z,930.56
2017-01-06T03:26:04.138Z,930.58
2017-01-06T03:26:31.990Z,930.56
2017-01-06T03:26:59.773Z,930.58
2017-01-06T03:27:27.545Z,930.57
2017-01-06T03:27:55.542Z,930.6
2017-01-06T03:28:23.356Z,930.57
2017-01-06T03:28:51.210Z,930.62
2017-01-06T03:29:19.265Z,930.58
2017-01-06T03:29:47.047Z,930.6
2017-01-06T03:30:14.909Z,930.58
2017-01-06T03:30:42.735Z,930.59
2017-01-06T03:31:10.660Z,930.59
2017-01-06T03:31:38.463Z,930.61
2017-01-06T03:32:06.302Z,930.61
2017-01-06T03:32:34.187Z,930.58
2017-01-06T03:33:02.060Z,930.58
2017-01-06T03:33:29.849Z,930.58
2017-01-06T03:33:57.694Z,930.6
2017-01-06T03:34:25.571Z,930.56
2017-01-06T03:34:53.541Z,930.53
2017-01-06T03:35:21.453Z,930.52
2017-01-06T03:35:49.251Z,930.56
2017-01-06T03:36:17.242Z,930.57
2017-01-06T03:36:45.081Z,930.58
2017-01-06T03:37:12.965Z,930.56
2017-01-06T03:37:40.847Z,930.58
2017-01-06T03:38:08.710Z,930.58
2017-01-06T03:38:36.569Z,930.55
2017-01-06T03:39:04.462Z,930.54
2017-01-06T03:39:32.295Z,930.59
2017-01-06T03:40:00.102Z,930.56
2017-01-06T03:40:27.982Z,930.57
2017-01-06T03:40:55.890Z,930.58
2017-01-06T03:41:23.909Z,930.58
2017-01-06T03:41:51.756Z,930.55
2017-01-06T03:42:19.556Z,930.54
2017-01-06T03:42:47.395Z,930.54
2017-01-06T03:43:15.261Z,930.51
2017-01-06T03:43:43.123Z,930.55
2017-01-06T03:44:10.930Z,930.54
2017-01-06T03:44:38.770Z,930.51
2017-01-06T03:45:06.595Z,930.55
2017-01-06T03:45:34.543Z,930.55
2017-01-06T03:46:02.500Z,930.52
2017-01-06T03:46:30.295Z,930.5
2017-01-06T03:46:58.166Z,930.5
2017-01-06T03:47:26.038Z,930.48
2017-01-06T03:47:53.879Z,930.48
2017-01-06T03:48:21.692Z,930.46
2017-01-06T03:48:49.519Z,930.43
2017-01-06T03:49:17.353Z,930.43
2017-01-06T03:49:45.160Z,930.41
2017-01-06T03:50:13.025Z,930.42
2017-01-06T03:50:40.864Z,930.41
2017-01-06T03:51:08.844Z,930.38
2017-01-06T03:51:36.680Z,930.37
2017-01-06T03:52:04.498Z,930.35
2017-01-06T03:52:32.333Z,930.31
2017-01-06T03:53:00.162Z,930.32
2017-01-06T03:53:28.055Z,930.3
2017-01-06T03:53:55.881Z,930.31
2017-01-06T03:54:23.709Z,930.28
2017-01-06T03:54:51.564Z,930.26
2017-01-06T03:55:19.477Z,930.24
2017-01-06T03:55:47.412Z,930.21
2017-01-06T03:56:15.354Z,930.24
2017-01-06T03:56:43.233Z,930.22
2017-01-06T03:57:11.090Z,930.22
2017-01-06T03:57:38.934Z,930.23
2017-01-06T03:58:06.771Z,930.22
2017-01-06T03:58:34.567Z,930.23
2017-01-06T03:59:02.372Z,930.22
2017-01-06T03:59:30.196Z,930.21
2017-01-06T03:59:57.972Z,930.23
2017-01-06T04:00:25.828Z,930.21
2017-01-06T04:00:53.707Z,930.22
2017-01-06T04:01:21.586Z,930.23
2017-01-06T04:01:49.363Z,930.2
2017-01-06T04:02:17.177Z,930.21
2017-01-06T04:02:45.133Z,930.17
2017-01-06T04:03:12.965Z,930.17
2017-01-06T04:03:40.787Z,930.14
2017-01-06T04:04:08.534Z,930.16
2017-01-06T04:04:36.345Z,930.15
2017-01-06T04:05:04.122Z,930.11
2017-01-06T04:05:31.904Z,930.13
2017-01-06T04:05:59.690Z,930.1
2017-01-06T04:06:27.584Z,930.09
2017-01-06T04:06:55.437Z,930.08
2017-01-06T04:07:23.186Z,930.11
2017-01-06T04:07:51.099Z,930.08
2017-01-06T04:08:18.902Z,930.08
2017-01-06T04:08:46.680Z,930.08
2017-01-06T04:09:14.563Z,930.06
2017-01-06T04:09:42.404Z,930.1
2017-01-06T04:10:10.323Z,930.06
2017-01-06T04:10:38.156Z,930.08
2017-01-06T04:11:05.987Z,930.1
2017-01-06T04:11:33.902Z,930.11
2017-01-06T04:12:01.695Z,930.11
2017-01-06T04:12:29.508Z,930.1
2017-01-06T04:12:57.373Z,930.07
2017-01-06T04:13:25.263Z,930.05
2017-01-06T04:13:53.087Z,930.04
2017-01-06T04:14:20.892Z,930.04
2017-01-06T04:14:48.694Z,930.07
2017-01-06T04:15:16.520Z,930.04
2017-01-06T04:15:44.446Z,930
2017-01-06T04:16:12.341Z,930.06
2017-01-06T04:16:40.243Z,930.05
2017-01-06T04:17:08.107Z,930.04
2017-01-06T04:17:36.015Z,930.05
2017-01-06T04:18:03.800Z,930.02
2017-01-06T04:18:31.587Z,930.02
2017-01-06T04:18:59.487Z,930.03
2017-01-06T04:19:27.273Z,930.01
2017-01-06T04:19:55.125Z,930.03
2017-01-06T04:20:23.026Z,930.05
2017-01-06T04:20:50.874Z,930.03
2017-01-06T04:21:18.668Z,930.01
2017-01-06T04:21:46.555Z,930.01
2017-01-06T04:22:14.436Z,930.07
2017-01-06T04:22:42.229Z,930.03
2017-01-06T04:23:10.106Z,930.04
2017-01-06T04:23:37.931Z,930.03
2017-01-06T04:24:05.789Z,930.04
2017-01-06T04:24:33.629Z,930.02
2017-01-06T04:25:01.397Z,930.01
2017-01-06T04:25:29.357Z,930
2017-01-06T04:25:57.146Z,929.98
2017-01-06T04:26:25.024Z,929.99
2017-01-06T04:26:53.055Z,929.94
2017-01-06T04:27:20.847Z,930
2017-01-06T04:27:48.674Z,929.95
2017-01-06T04:28:16.473Z,929.92
2017-01-06T04:28:44.312Z,929.95
2017-01-06T04:29:12.216Z,929.93
2017-01-06T04:29:40.249Z,929.92
2017-01-06T04:30:08.072Z,929.93
2017-01-06T04:30:35.922Z,929.93
2017-01-06T04:31:03.764Z,929.89
2017-01-06T04:31:31.571Z,929.9
2017-01-06T04:31:59.526Z,929.9
2017-01-06T04:32:27.299Z,929.86
2017-01-06T04:32:55.136Z,929.86
2017-01-06T04:33:22.955Z,929.89
2017-01-06T04:33:50.765Z,929.9
2017-01-06T04:34:18.560Z,929.83
2017-01-06T04:34:46.455Z,929.81
2017-01-06T04:35:14.283Z,929.86
2017-01-06T04:35:42.080Z,929.86
2017-01-06T04:36:10.030Z,929.82
2017-01-06T04:36:37.937Z,929.82
2017-01-06T04:37:05.711Z,929.85
2017-01-06T04:37:33.576Z,929.87
2017-01-06T04:38:01.428Z,929.85
2017-01-06T04:38:29.261Z,929.85
2017-01-06T04:38:57.056Z,929.87
2017-01-06T04:39:25.020Z,929.88
2017-01-06T04:39:52.951Z,929.88
2017-01-06T04:40:20.808Z,929.87
2017-01-06T04:40:48.680Z,929.85
2017-01-06T04:41:16.456Z,929.83
2017-01-06T04:41:44.381Z,929.86
2017-01-06T04:42:12.188Z,929.82
2017-01-06T04:42:40.095Z,929.86
2017-01-06T04:43:07.891Z,929.87
2017-01-06T04:43:35.735Z,929.88
2017-01-06T04:44:03.579Z,929.86
2017-01-06T04:44:31.463Z,929.84
2017-01-06T04:44:59.286Z,929.84
2017-01-06T04:45:27.081Z,929.88
2017-01-06T04:45:54.898Z,929.88
2017-01-06T04:46:22.688Z,929.87
2017-01-06T04:46:50.590Z,929.88
2017-01-06T04:47:18.428Z,929.89
2017-01-06T04:47:46.324Z,929.87
2017-01-06T04:48:14.094Z,929.89
2017-01-06T04:48:41.921Z,929.85
2017-01-06T04:49:09.795Z,929.9
2017-01-06T04:49:37.630Z,929.87
2017-01-06T04:50:05.463Z,929.86
2017-01-06T04:50:33.304Z,929.89
2017-01-06T04:51:01.088Z,929.87
2017-01-06T04:51:28.992Z,929.86
2017-01-06T04:51:57.095Z,929.84
2017-01-06T04:52:24.912Z,929.85
2017-01-06T04:52:52.728Z,929.85
2017-01-06T04:53:20.544Z,929.86
2017-01-06T04:53:48.433Z,929.84
2017-01-06T04:54:16.307Z,929.89
2017-01-06T04:54:44.111Z,929.82
2017-01-06T04:55:12.010Z,929.85
2017-01-06T04:55:39.799Z,929.82
2017-01-06T04:56:07.625Z,929.8
2017-01-06T04:56:35.474Z,929.8
2017-01-06T04:57:03.494Z,929.81
2017-01-06T04:57:31.336Z,929.82
2017-01-06T04:57:59.121Z,929.83
2017-01-06T04:58:26.989Z,929.83
2017-01-06T04:58:54.855Z,929.82
2017-01-06T04:59:22.637Z,929.83
2017-01-06T04:59:50.427Z,929.79
2017-01-06T05:00:18.268Z,929.84
2017-01-06T05:00:46.259Z,929.81
2017-01-06T05:01:14.041Z,929.84
2017-01-06T05:01:41.897Z,929.85
2017-01-06T05:02:09.817Z,929.87
2017-01-06T05:02:37.625Z,929.86
2017-01-06T05:03:05.490Z,929.85
2017-01-06T05:03:33.311Z,929.83
2017-01-06T05:04:01.120Z,929.82
2017-01-06T05:04:28.997Z,929.86
2017-01-06T05:04:56.765Z,929.85
2017-01-06T05:05:24.612Z,929.85
2017-01-06T05:05:52.487Z,929.86
2017-01-06T05:06:20.317Z,929.85
2017-01-06T05:06:48.179Z,929.8
2017-01-06T05:07:16.077Z,929.83
2017-01-06T05:07:43.861Z,929.83
2017-01-06T05:08:11.666Z,929.8
2017-01-06T05:08:39.594Z,929.87
2017-01-06T05:09:07.383Z,929.83
2017-01-06T05:09:35.276Z,929.82
2017-01-06T05:10:03.059Z,929.82
2017-01-06T05:10:30.924Z,929.8
2017-01-06T05:10:58.674Z,929.79
2017-01-06T05:11:26.564Z,929.82
2017-01-06T05:11:54.627Z,929.81
2017-01-06T05:12:22.503Z,929.84
2017-01-06T05:12:50.255Z,929.84
2017-01-06T05:13:18.204Z,929.83
2017-01-06T05:13:46.113Z,929.84
2017-01-06T05:14:14.056Z,929.83
2017-01-06T05:14:41.949Z,929.87
2017-01-06T05:15:09.886Z,929.88
2017-01-06T05:15:37.666Z,929.87
2017-01-06T05:16:05.573Z,929.86
2017-01-06T05:16:33.330Z,929.86
2017-01-06T05:17:01.257Z,929.89
2017-01-06T05:17:29.057Z,929.85
2017-01-06T05:17:56.802Z,929.87
2017-01-06T05:18:24.751Z,929.86
2017-01-06T05:18:52.515Z,929.89
2017-01-06T05:19:20.346Z,929.85
2017-01-06T05:19:48.250Z,929.86
2017-01-06T05:20:16.059Z,929.88
2017-01-06T05:20:43.890Z,929.85
2017-01-06T05:21:11.711Z,929.86
2017-01-06T05:21:39.580Z,929.89
2017-01-06T05:22:07.482Z,929.87
2017-01-06T05:22:35.340Z,929.89
2017-01-06T05:23:03.173Z,929.9
2017-01-06T05:23:30.997Z,929.89
2017-01-06T05:23:58.812Z,929.9
2017-01-06T05:24:26.675Z,929.89
2017-01-06T05:24:54.494Z,929.91
2017-01-06T05:25:22.370Z,929.92
2017-01-06T05:25:50.454Z,929.91
2017-01-06T05:26:18.286Z,929.9
2017-01-06T05:26:46.139Z,929.9
2017-01-06T05:27:13.985Z,929.94
2017-01-06T05:27:41.766Z,929.9
2017-01-06T05:28:09.553Z,929.9
2017-01-06T05:28:37.374Z,929.9
2017-01-06T05:29:05.202Z,929.89
2017-01-06T05:29:33.043Z,929.88
2017-01-06T05:30:00.854Z,929.9
2017-01-06T05:30:28.614Z,929.87
2017-01-06T05:30:56.634Z,929.88
2017-01-06T05:31:24.554Z,929.89
2017-01-06T05:31:52.436Z,929.87
2017-01-06T05:32:20.355Z,929.88
2017-01-06T05:32:48.248Z,929.89
2017-01-06T05:33:16.065Z,929.86
2017-01-06T05:33:43.908Z,929.88
2017-01-06T05:34:11.712Z,929.91
2017-01-06T05:34:39.488Z,929.9
2017-01-06T05:35:07.311Z,929.89
2017-01-06T05:35:35.119Z,929.87
2017-01-06T05:36:02.930Z,929.91
2017-01-06T05:36:30.835Z,929.92
2017-01-06T05:36:58.666Z,929.88
2017-01-06T05:37:26.583Z,929.89
2017-01-06T05:37:54.431Z,929.87
2017-01-06T05:38:22.334Z,929.91
2017-01-06T05:38:50.259Z,929.89
2017-01-06T05:39:18.131Z,929.92
2017-01-06T05:39:46.039Z,929.89
2017-01-06T05:40:13.800Z,929.9
2017-01-06T05:40:41.686Z,929.91
2017-01-06T05:41:09.493Z,929.9
2017-01-06T05:41:37.327Z,929.88
2017-01-06T05:42:05.153Z,929.89
2017-01-06T05:42:33.116Z,929.88
2017-01-06T05:43:00.949Z,929.87
2017-01-06T05:43:28.769Z,929.9
2017-01-06T05:43:56.580Z,929.87
2017-01-06T05:44:24.387Z,929.86
2017-01-06T05:44:52.165Z,929.85
2017-01-06T05:45:19.969Z,929.85
2017-01-06T05:45:47.737Z,929.88
2017-01-06T05:46:15.527Z,929.84
2017-01-06T05:46:43.371Z,929.84
2017-01-06T05:47:11.315Z,929.87
2017-01-06T05:47:39.209Z,929.85
2017-01-06T05:48:07.054Z,929.84
2017-01-06T05:48:34.931Z,929.82
2017-01-06T05:49:02.732Z,929.83
2017-01-06T05:49:30.585Z,929.87
2017-01-06T05:49:58.559Z,929.83
2017-01-06T05:50:26.413Z,929.84
2017-01-06T05:50:54.231Z,929.84
2017-01-06T05:51:22.024Z,929.85